»·PEaware :: N55NT KMIT-KSNA

N55NT :: KMIT-KSNA

FLIGHT INFORMATION

Flight Status: Arrived
Operator: Privately registered:
United States
More flights under this callsign
Pilot: Craig H. (6968)
Aircraft: BEECH AIRCRAFT BARON
(BE58)
More flights by this aircraft type
Origin: KMIT Shafter-Minter
United States
Destination: KSNA John Wayne-Orange Co
United States
More flights between these airports :: More routes between these airports
Route: LHS V459 SLI
File this flight plan on PilotEdge
Remarks:
Altitude:
(Current/Filed)
9,000ft
Speed:
(Current/Filed)
185kts
Departed: 16-Jul-20 04:55 PM
Arrived: 16-Jul-20 05:44 PM
Distance/Time
Traveled:
128nm/0:49
Distance/Time
To Go:
Arrived

Flight Plot

Page will automatically refresh every two minutes.

Flight plan parsing failed; only flown route is shown


Map Options




Map Legend


Flown Route
Filed Route
Departure Airport
Arrival Airport
Navaid (VOR, NDB)
Fix

Horizontal Profiles

Position Reports

Time Latitude Longitude Heading Altitude Ground
Speed
16-Jul-20 16:43 35.503843 -119.184594 59 423ft 8kts
16-Jul-20 16:44 35.503977 -119.183659 358 423ft 0kts
16-Jul-20 16:45 35.503977 -119.183659 358 423ft 0kts
16-Jul-20 16:46 35.503977 -119.183659 358 423ft 0kts
16-Jul-20 16:47 35.503977 -119.183659 358 423ft 0kts
16-Jul-20 16:48 35.503977 -119.183659 358 423ft 0kts
16-Jul-20 16:49 35.503977 -119.183659 358 423ft 0kts
16-Jul-20 16:50 35.503977 -119.183659 358 423ft 0kts
16-Jul-20 16:51 35.503977 -119.183659 358 423ft 0kts
16-Jul-20 16:52 35.503392 -119.183954 178 423ft 11kts
16-Jul-20 16:53 35.501199 -119.185512 266 423ft 1kts
16-Jul-20 16:54 35.507995 -119.185969 356 463ft 95kts
16-Jul-20 16:55 35.535956 -119.193590 299 1552ft 121kts
16-Jul-20 16:56 35.518007 -119.220465 164 2641ft 134kts
16-Jul-20 16:57 35.486794 -119.195428 148 3652ft 137kts
16-Jul-20 16:58 35.454616 -119.169877 148 4654ft 137kts
16-Jul-20 16:59 35.422445 -119.144828 148 5606ft 138kts
16-Jul-20 17:00 35.390060 -119.119589 147 6514ft 140kts
16-Jul-20 17:01 35.357160 -119.094037 148 7414ft 140kts
16-Jul-20 17:02 35.324600 -119.068832 147 8269ft 138kts
16-Jul-20 17:03 35.291522 -119.043280 147 8958ft 145kts
16-Jul-20 17:04 35.253056 -119.013620 147 8976ft 179kts
16-Jul-20 17:05 35.209761 -118.980118 147 8979ft 187kts
16-Jul-20 17:06 35.165818 -118.946302 147 8998ft 186kts
16-Jul-20 17:07 35.122097 -118.912608 147 9050ft 186kts
16-Jul-20 17:08 35.078364 -118.878981 147 9125ft 184kts
16-Jul-20 17:09 35.034947 -118.845646 147 9221ft 183kts
16-Jul-20 17:10 34.991837 -118.812575 147 9267ft 183kts
16-Jul-20 17:11 34.948338 -118.779214 147 9201ft 188kts
16-Jul-20 17:12 34.904085 -118.745389 147 9186ft 187kts
16-Jul-20 17:13 34.862569 -118.713634 147 9198ft 185kts
16-Jul-20 17:14 34.819105 -118.680471 147 9191ft 184kts
16-Jul-20 17:15 34.775828 -118.647468 147 9194ft 183kts
16-Jul-20 17:16 34.732553 -118.614509 147 9193ft 183kts
16-Jul-20 17:17 34.689253 -118.581589 148 9169ft 184kts
16-Jul-20 17:18 34.643236 -118.553591 153 9120ft 185kts
16-Jul-20 17:19 34.596745 -118.526239 153 9065ft 185kts
16-Jul-20 17:20 34.549993 -118.498856 153 9025ft 187kts
16-Jul-20 17:21 34.503146 -118.471456 153 9022ft 186kts
16-Jul-20 17:22 34.456572 -118.444249 153 9025ft 186kts
16-Jul-20 17:23 34.409988 -118.417053 153 9027ft 185kts
16-Jul-20 17:24 34.363603 -118.390026 153 9024ft 185kts
16-Jul-20 17:25 34.317167 -118.362997 153 9018ft 185kts
16-Jul-20 17:26 34.271038 -118.336186 153 9009ft 185kts
16-Jul-20 17:27 34.224377 -118.309103 154 9003ft 186kts
16-Jul-20 17:28 34.177624 -118.281978 153 9003ft 187kts
16-Jul-20 17:29 34.130692 -118.254805 153 9002ft 187kts
16-Jul-20 17:30 34.083774 -118.227670 153 9003ft 187kts
16-Jul-20 17:31 34.036212 -118.200223 154 8606ft 198kts
16-Jul-20 17:32 33.984536 -118.170417 154 7430ft 202kts
16-Jul-20 17:33 33.936170 -118.142577 154 7006ft 188kts
16-Jul-20 17:34 33.889323 -118.115580 154 7009ft 187kts
16-Jul-20 17:35 33.844713 -118.077674 115 5894ft 204kts
16-Jul-20 17:36 33.825226 -118.016319 112 4784ft 192kts
16-Jul-20 17:37 33.803923 -117.959026 131 3776ft 183kts
16-Jul-20 17:38 33.774028 -117.908921 124 3100ft 179kts
16-Jul-20 17:39 33.745926 -117.862771 135 2512ft 160kts
16-Jul-20 17:40 33.715144 -117.847501 191 1250ft 103kts
16-Jul-20 17:41 33.691247 -117.858922 208 390ft 89kts
16-Jul-20 17:42 33.672971 -117.870577 207 59ft 41kts
16-Jul-20 17:43 33.669257 -117.871721 129 59ft 0kts
16-Jul-20 17:44 33.667364 -117.872747 220 59ft 12kts
16-Jul-20 17:45 33.665946 -117.873069 45 59ft 0kts

Navigation Log

Ident Type
Flight plan parsing failed, navigation log unavailable